Time;durP1;ratioP1;P1;durP2;ratioP2;P2;SDS_P1;SDS_P2;PMS_P1;PMS_P2;Temp;Humidity;BMP_temperature;BMP_pressure;BME280_temperature;BME280_humidity;BME280_pressure;Samples;Min_cycle;Max_cycle;Signal;HPM_P1;HPM_P2
2022/06/23 00:01:35;;;;;;;2.17;1.20;;;;;;;18.96;90.25;100752.50;5030928;28;20536;-60
2022/06/23 00:04:01;;;;;;;1.58;1.20;;;;;;;18.82;90.61;100748.75;5047045;28;20033;-60
2022/06/23 00:06:33;;;;;;;1.73;0.73;;;;;;;18.81;90.40;100757.34;5050306;28;20505;-60
2022/06/23 00:08:59;;;;;;;0.98;0.80;;;;;;;18.90;89.79;100752.94;5043783;28;20144;-60
2022/06/23 00:11:27;;;;;;;1.10;0.88;;;;;;;18.77;90.39;100756.63;5050034;28;20156;-59
2022/06/23 00:14:06;;;;;;;1.80;0.80;;;;;;;18.82;91.04;100758.88;5049023;28;20036;-60
2022/06/23 00:16:31;;;;;;;1.10;0.68;;;;;;;18.80;91.34;100761.25;5047428;28;20033;-60
2022/06/23 00:18:59;;;;;;;1.20;1.10;;;;;;;18.55;92.03;100760.75;5049649;28;20028;-60
2022/06/23 00:21:31;;;;;;;1.23;0.80;;;;;;;18.79;91.52;100760.47;5032371;28;20056;-60
2022/06/23 00:24:06;;;;;;;1.05;0.82;;;;;;;18.70;91.14;100756.69;5047615;28;20029;-58
2022/06/23 00:26:34;;;;;;;1.95;1.17;;;;;;;18.68;91.32;100759.03;5034418;28;20163;-60
2022/06/23 00:29:04;;;;;;;2.08;1.10;;;;;;;18.61;91.94;100756.41;5028731;28;20108;-59
2022/06/23 00:31:32;;;;;;;2.30;0.82;;;;;;;18.71;91.69;100759.03;5074794;22;20127;-63
2022/06/23 00:34:02;;;;;;;1.17;0.90;;;;;;;18.67;91.42;100755.56;5081182;28;20050;-63
2022/06/23 00:36:43;;;;;;;1.38;0.88;;;;;;;18.64;91.81;100753.63;5083313;28;20066;-63
2022/06/23 00:39:46;;;;;;;1.20;0.88;;;;;;;18.60;91.31;100758.34;5069696;28;20434;-64
2022/06/23 00:42:46;;;;;;;1.50;0.98;;;;;;;18.68;91.12;100757.09;5081047;28;20085;-63
2022/06/23 00:45:13;;;;;;;1.30;0.73;;;;;;;18.69;90.66;100753.19;5053519;28;20047;-64
2022/06/23 00:47:49;;;;;;;1.42;1.08;;;;;;;18.52;91.31;100750.66;5073021;28;20028;-64
2022/06/23 00:50:37;;;;;;;2.83;1.00;;;;;;;18.30;92.60;100754.75;5069994;28;20399;-63
2022/06/23 00:53:11;;;;;;;1.42;0.82;;;;;;;18.30;92.80;100754.75;5050234;28;20029;-64
2022/06/23 00:55:42;;;;;;;6.00;1.10;;;;;;;18.33;92.44;100754.69;5084366;28;20028;-63
2022/06/23 00:58:14;;;;;;;3.05;0.90;;;;;;;18.48;91.96;100760.84;5075291;28;20048;-62
2022/06/23 01:00:40;;;;;;;;;;;;;;;18.39;92.43;100755.81;5050129;28;20045;-59
2022/06/23 01:03:40;;;;;;;0.65;0.65;;;;;;;18.23;93.46;100758.31;5078542;28;19982;-61
2022/06/23 01:06:17;;;;;;;0.90;0.70;;;;;;;18.30;92.90;100763.72;5074517;28;20063;-59
2022/06/23 01:09:03;;;;;;;1.30;0.93;;;;;;;18.29;92.98;100769.56;5080167;28;20086;-62
2022/06/23 01:11:47;;;;;;;1.73;0.68;;;;;;;18.16;93.05;100769.28;5052516;28;20527;-62
2022/06/23 01:14:28;;;;;;;1.50;0.85;;;;;;;18.06;93.10;100778.31;5072398;28;20035;-61
2022/06/23 01:17:01;;;;;;;;;;;;;;;18.01;93.71;100779.53;5061346;28;20036;-61
2022/06/23 01:19:55;;;;;;;1.40;1.30;;;;;;;18.01;93.79;100776.81;5069225;28;19920;-63
2022/06/23 01:22:46;;;;;;;1.05;0.95;;;;;;;17.87;93.88;100771.47;5048612;28;20047;-62
2022/06/23 01:25:40;;;;;;;1.25;0.85;;;;;;;17.87;94.46;100767.97;5073744;28;20060;-62
2022/06/23 01:28:15;;;;;;;1.98;1.10;;;;;;;17.89;94.64;100769.13;5054377;28;20078;-62
2022/06/23 01:30:54;;;;;;;1.73;1.15;;;;;;;17.79;95.74;100767.25;5054007;28;20036;-63
2022/06/23 01:33:38;;;;;;;3.20;1.08;;;;;;;17.88;94.70;100769.53;5076438;28;20063;-61
2022/06/23 01:36:17;;;;;;;2.17;1.08;;;;;;;17.98;93.93;100780.31;5080718;28;20032;-60
2022/06/23 01:39:01;;;;;;;1.10;1.00;;;;;;;18.01;93.33;100768.63;5074289;28;20055;-61
2022/06/23 01:41:42;;;;;;;1.70;1.02;;;;;;;18.06;93.86;100772.88;5073747;28;20110;-58
2022/06/23 01:44:13;;;;;;;1.25;0.90;;;;;;;18.06;93.55;100781.03;5070725;28;20081;-64
2022/06/23 01:46:41;;;;;;;1.25;0.93;;;;;;;17.96;93.87;100774.50;5069589;28;20032;-62
2022/06/23 01:49:26;;;;;;;1.23;0.98;;;;;;;17.88;94.22;100783.16;5053916;28;20028;-61
2022/06/23 01:52:08;;;;;;;1.52;0.80;;;;;;;17.75;94.86;100780.09;5068454;28;20123;-61
2022/06/23 01:54:34;;;;;;;1.90;0.95;;;;;;;17.85;94.29;100773.81;5067888;28;20078;-59
2022/06/23 01:57:30;;;;;;;1.30;0.88;;;;;;;17.75;95.30;100779.34;5072236;28;20104;-58
2022/06/23 02:00:17;;;;;;;1.15;0.98;;;;;;;17.68;95.61;100779.38;5070641;28;20037;-62
2022/06/23 02:02:58;;;;;;;1.77;1.05;;;;;;;17.73;94.29;100771.56;5066842;28;20054;-66
2022/06/23 02:05:39;;;;;;;1.90;1.00;;;;;;;17.77;94.45;100772.31;5059271;28;20033;-60
2022/06/23 02:08:39;;;;;;;1.58;0.90;;;;;;;17.74;94.69;100784.03;5080334;28;20574;-58
2022/06/23 02:11:30;;;;;;;2.45;1.20;;;;;;;17.74;94.61;100789.47;5056987;28;20032;-60
2022/06/23 02:14:02;;;;;;;2.33;1.02;;;;;;;17.67;94.84;100786.78;5071486;28;20086;-61
2022/06/23 02:16:44;;;;;;;1.50;0.93;;;;;;;17.71;94.58;100800.41;5069878;28;20035;-61
2022/06/23 02:19:22;;;;;;;1.98;1.02;;;;;;;17.70;94.09;100791.44;5075969;28;20484;-59
2022/06/23 02:22:15;;;;;;;1.48;0.88;;;;;;;17.67;94.09;100789.50;5061010;28;20557;-57
2022/06/23 02:24:46;;;;;;;0.95;0.90;;;;;;;17.64;94.79;100790.31;5063386;28;20738;-60
2022/06/23 02:27:20;;;;;;;2.50;1.17;;;;;;;17.78;94.10;100789.44;5077469;28;20503;-59
2022/06/23 02:29:58;;;;;;;1.25;0.93;;;;;;;17.76;93.17;100797.25;5075842;28;20044;-60
2022/06/23 02:32:40;;;;;;;1.90;1.50;;;;;;;17.54;94.29;100804.75;5070418;28;20028;-61
2022/06/23 02:35:37;;;;;;;1.23;1.02;;;;;;;17.52;94.40;100803.59;5075612;28;20103;-58
2022/06/23 02:38:08;;;;;;;1.98;1.20;;;;;;;17.51;94.47;100802.06;5054872;28;20033;-58
2022/06/23 02:41:09;;;;;;;0.93;0.82;;;;;;;17.47;94.25;100812.16;5069294;28;20147;-58
2022/06/23 02:43:43;;;;;;;1.85;0.85;;;;;;;17.50;94.22;100816.88;5020998;28;20050;-60
2022/06/23 02:46:33;;;;;;;1.70;0.90;;;;;;;17.58;93.06;100813.69;5072196;28;20036;-63
2022/06/23 02:49:22;;;;;;;1.52;1.00;;;;;;;17.45;94.26;100809.84;5072996;28;20055;-62
2022/06/23 02:52:00;;;;;;;0.90;0.80;;;;;;;17.26;94.96;100813.06;5061287;28;20028;-61
2022/06/23 02:54:31;;;;;;;1.50;0.98;;;;;;;17.40;94.84;100815.69;5074872;28;20036;-61
2022/06/23 02:57:09;;;;;;;;;;;;;;;17.41;94.49;100814.53;5071439;28;20037;-64
2022/06/23 02:59:57;;;;;;;1.98;0.90;;;;;;;17.29;95.22;100814.97;5056675;28;19962;-60
2022/06/23 03:02:32;;;;;;;1.73;0.95;;;;;;;17.38;94.96;100826.22;5084738;28;20032;-58
2022/06/23 03:05:23;;;;;;;1.52;1.17;;;;;;;17.27;95.08;100824.69;5071063;28;20475;-61
2022/06/23 03:08:20;;;;;;;0.75;0.75;;;;;;;17.21;95.75;100821.63;5070503;28;20032;-58
2022/06/23 03:10:49;;;;;;;2.30;1.10;;;;;;;17.16;96.44;100816.59;5031876;28;20040;-60
2022/06/23 03:13:57;;;;;;;1.92;0.80;;;;;;;17.15;96.43;100817.75;5079518;28;20524;-60
2022/06/23 03:16:42;;;;;;;2.78;1.20;;;;;;;17.31;95.86;100809.13;5028725;28;20572;-58
2022/06/23 03:19:25;;;;;;;1.30;0.95;;;;;;;17.34;96.14;100813.81;5081516;28;20719;-58
2022/06/23 03:22:00;;;;;;;2.58;1.23;;;;;;;17.42;95.79;100810.63;5075895;28;20039;-60
2022/06/23 03:24:32;;;;;;;2.78;1.40;;;;;;;17.39;95.62;100814.16;5074364;28;20113;-60
2022/06/23 03:27:11;;;;;;;2.15;1.27;;;;;;;17.20;96.50;100809.19;5076558;28;20037;-60
2022/06/23 03:29:58;;;;;;;2.03;0.93;;;;;;;17.33;96.10;100812.22;5074079;28;20040;-62
2022/06/23 03:32:32;;;;;;;2.13;1.40;;;;;;;17.46;96.06;100816.09;5075734;28;20098;-63
2022/06/23 03:35:01;;;;;;;1.95;1.10;;;;;;;17.47;95.74;100806.72;5070902;28;20106;-63
2022/06/23 03:37:45;;;;;;;4.35;0.95;;;;;;;17.44;95.75;100813.72;5054936;28;20052;-62
2022/06/23 03:43:32;;;;;;;1.75;0.98;;;;;;;17.38;96.17;100809.88;5071821;28;20047;-62
2022/06/23 03:46:07;;;;;;;2.28;1.30;;;;;;;17.46;95.83;100819.56;5011583;28;20040;-61
2022/06/23 03:48:44;;;;;;;1.33;1.08;;;;;;;17.52;95.96;100818.00;5068954;28;20093;-60
2022/06/23 03:51:15;;;;;;;1.88;1.20;;;;;;;17.56;95.62;100821.47;5058533;28;20064;-60
2022/06/23 03:54:16;;;;;;;1.67;1.10;;;;;;;17.57;96.17;100817.59;5061204;28;20381;-58
2022/06/23 03:56:49;;;;;;;2.83;1.10;;;;;;;17.66;95.23;100807.03;5046276;28;20381;-63
2022/06/23 03:59:24;;;;;;;2.70;1.30;;;;;;;17.63;95.63;100810.56;5071613;28;20029;-61
2022/06/23 04:01:56;;;;;;;1.65;0.88;;;;;;;17.72;95.84;100807.38;5053297;28;20042;-62
2022/06/23 04:04:38;;;;;;;3.17;1.00;;;;;;;17.80;95.06;100812.41;5072233;28;20536;-62
2022/06/23 04:07:31;;;;;;;1.35;0.95;;;;;;;17.88;94.42;100800.28;5071647;28;20112;-62
2022/06/23 04:10:04;;;;;;;3.00;1.80;;;;;;;17.76;95.17;100805.41;5064202;28;20083;-62
2022/06/23 04:12:32;;;;;;;2.15;1.30;;;;;;;17.81;95.51;100805.75;5053484;28;20488;-62
2022/06/23 04:15:09;;;;;;;1.30;1.05;;;;;;;17.91;95.08;100806.88;5071751;28;20105;-62
2022/06/23 04:17:51;;;;;;;1.58;1.05;;;;;;;17.95;94.58;100808.41;5071968;28;20145;-64
2022/06/23 04:20:21;;;;;;;3.08;1.10;;;;;;;17.99;94.87;100811.88;5062792;28;20546;-62
2022/06/23 04:23:02;;;;;;;2.15;1.42;;;;;;;17.88;94.79;100810.41;5070526;28;20036;-63
2022/06/23 04:25:45;;;;;;;1.42;0.90;;;;;;;18.02;95.02;100818.47;5045052;28;20036;-61
2022/06/23 04:28:48;;;;;;;2.45;1.35;;;;;;;18.09;94.09;100817.63;5067055;28;20055;-59
2022/06/23 04:31:18;;;;;;;2.88;1.40;;;;;;;18.13;94.49;100812.94;5060023;28;20039;-62
2022/06/23 04:33:46;;;;;;;1.23;0.93;;;;;;;18.17;93.90;100822.66;5061187;28;20082;-62
2022/06/23 04:36:24;;;;;;;1.67;1.20;;;;;;;18.24;93.81;100821.78;5071167;28;20033;-61
2022/06/23 04:39:01;;;;;;;1.48;1.15;;;;;;;18.30;92.95;100831.09;5040898;28;20036;-62
2022/06/23 04:41:34;;;;;;;1.60;1.02;;;;;;;18.37;92.81;100831.81;5059981;28;20033;-59
2022/06/23 04:44:12;;;;;;;1.60;1.15;;;;;;;18.30;93.70;100831.09;5070356;28;20028;-60
2022/06/23 04:46:47;;;;;;;1.30;0.77;;;;;;;18.35;93.62;100834.16;5066921;28;20525;-60
2022/06/23 04:49:45;;;;;;;0.88;0.80;;;;;;;18.47;93.73;100835.66;5070236;28;20511;-62
2022/06/23 04:52:23;;;;;;;1.00;0.82;;;;;;;18.51;92.89;100841.84;5028904;28;20047;-58
2022/06/23 04:55:01;;;;;;;1.15;0.82;;;;;;;18.56;93.35;100852.34;5066651;28;20488;-61
2022/06/23 04:57:39;;;;;;;1.60;0.95;;;;;;;18.64;92.82;100851.84;5070887;28;20086;-61
2022/06/23 05:00:06;;;;;;;3.42;0.98;;;;;;;18.72;92.94;100849.84;5045937;28;20042;-61
2022/06/23 05:03:06;;;;;;;1.42;0.80;;;;;;;18.73;92.38;100843.22;5060275;28;20048;-63
2022/06/23 05:05:35;;;;;;;1.67;0.63;;;;;;;18.86;92.11;100849.69;5069227;28;20086;-62
2022/06/23 05:08:18;;;;;;;2.90;0.95;;;;;;;18.78;91.71;100846.28;5043871;28;20047;-62
2022/06/23 05:10:48;;;;;;;0.60;0.50;;;;;;;18.76;92.19;100850.56;5061367;28;20059;-61
2022/06/23 05:13:22;;;;;;;1.70;1.33;;;;;;;19.03;91.65;100856.91;5062318;28;20032;-63
2022/06/23 05:16:05;;;;;;;1.30;1.00;;;;;;;19.52;90.69;100858.31;5061172;28;20051;-65
2022/06/23 05:18:38;;;;;;;1.25;0.68;;;;;;;20.42;88.01;100869.13;5063452;28;20373;-64
2022/06/23 05:21:17;;;;;;;0.70;0.65;;;;;;;21.24;82.62;100869.22;5062987;28;20619;-61
2022/06/23 05:23:50;;;;;;;1.45;0.80;;;;;;;21.99;78.35;100863.69;5065387;28;20076;-62
2022/06/23 05:26:28;;;;;;;0.98;0.70;;;;;;;22.47;74.55;100865.69;5063489;28;20062;-62
2022/06/23 05:29:00;;;;;;;1.00;0.70;;;;;;;23.19;72.85;100868.88;5067007;28;20079;-62
2022/06/23 05:31:33;;;;;;;1.10;0.60;;;;;;;23.54;70.25;100869.91;5065248;28;20035;-62
2022/06/23 05:34:07;;;;;;;0.50;0.50;;;;;;;23.67;68.02;100870.69;5059783;28;20112;-60
2022/06/23 05:36:44;;;;;;;0.93;0.60;;;;;;;24.21;66.41;100874.13;5069606;28;20072;-62
2022/06/23 05:39:22;;;;;;;0.65;0.55;;;;;;;24.17;65.05;100874.25;5058379;28;20060;-60
2022/06/23 05:41:52;;;;;;;0.70;0.50;;;;;;;24.40;64.40;100873.09;5066198;28;20083;-59
2022/06/23 05:44:28;;;;;;;0.50;0.43;;;;;;;24.56;65.10;100872.97;5065134;28;20032;-61
2022/06/23 05:46:57;;;;;;;1.83;0.52;;;;;;;24.87;64.98;100875.88;5066242;28;20120;-62
2022/06/23 05:49:40;;;;;;;1.15;0.60;;;;;;;24.85;64.43;100870.78;5068965;28;20059;-62
2022/06/23 05:52:12;;;;;;;0.73;0.70;;;;;;;24.88;64.42;100880.94;5066063;28;20036;-63
2022/06/23 05:54:46;;;;;;;0.60;0.40;;;;;;;24.95;61.95;100879.91;5060262;28;20036;-62
2022/06/23 05:57:34;;;;;;;0.50;0.40;;;;;;;25.16;63.15;100884.69;5058628;28;20501;-62
2022/06/23 06:00:09;;;;;;;0.73;0.40;;;;;;;25.31;63.98;100879.41;5060884;28;20059;-61
2022/06/23 06:02:40;;;;;;;0.40;0.40;;;;;;;25.57;61.50;100889.09;5063444;28;20454;-62
2022/06/23 06:05:18;;;;;;;0.88;0.52;;;;;;;25.53;61.60;100891.97;5066264;28;20118;-62
2022/06/23 06:07:43;;;;;;;0.63;0.50;;;;;;;25.45;60.44;100887.97;5050458;28;20123;-61
2022/06/23 06:10:29;;;;;;;0.55;0.50;;;;;;;25.28;59.94;100883.06;5067491;28;20123;-61
2022/06/23 06:12:57;;;;;;;1.25;0.40;;;;;;;25.15;60.04;100879.59;5044391;28;20028;-62
2022/06/23 06:15:26;;;;;;;0.47;0.47;;;;;;;24.73;62.10;100890.91;5068385;28;20033;-63
2022/06/23 06:18:03;;;;;;;2.80;0.50;;;;;;;24.97;63.93;100896.78;5070080;28;20033;-62
2022/06/23 06:20:29;;;;;;;0.85;0.55;;;;;;;25.07;60.85;100881.84;5068078;28;20032;-60
2022/06/23 06:23:04;;;;;;;1.15;0.47;;;;;;;25.29;61.37;100888.13;5063832;28;20032;-62
2022/06/23 06:25:37;;;;;;;1.45;0.70;;;;;;;24.77;62.89;100882.50;5064738;28;20037;-61
2022/06/23 06:28:31;;;;;;;1.80;0.77;;;;;;;24.81;63.28;100878.44;5063977;28;20036;-61
2022/06/23 06:33:31;;;;;;;1.13;0.50;;;;;;;25.14;61.79;100881.59;5039615;28;20076;-61
2022/06/23 06:35:57;;;;;;;0.60;0.50;;;;;;;25.18;59.79;100873.19;5046361;28;20279;-62
2022/06/23 06:38:25;;;;;;;1.60;0.50;;;;;;;25.16;61.34;100881.13;5046960;28;20508;-61
2022/06/23 06:40:57;;;;;;;1.38;0.57;;;;;;;25.05;62.31;100876.00;5046827;28;20386;-62
2022/06/23 06:43:29;;;;;;;1.02;0.80;;;;;;;25.17;61.79;100869.66;5008447;28;20048;-63
2022/06/23 06:45:55;;;;;;;0.73;0.68;;;;;;;24.35;63.29;100875.66;5023555;28;20042;-63
2022/06/23 06:48:35;;;;;;;2.22;0.60;;;;;;;24.05;64.06;100861.25;5016853;28;20033;-63
2022/06/23 06:51:11;;;;;;;0.98;0.60;;;;;;;24.50;63.21;100863.72;5033149;28;20049;-63
2022/06/23 06:53:43;;;;;;;2.33;0.55;;;;;;;24.47;62.64;100866.56;5013755;28;20128;-62
2022/06/23 06:56:18;;;;;;;1.08;0.60;;;;;;;24.77;65.32;100869.50;5033389;28;20385;-64
2022/06/23 06:58:50;;;;;;;0.88;0.70;;;;;;;25.24;63.08;100861.13;5033386;28;20033;-60
2022/06/23 07:01:26;;;;;;;0.65;0.50;;;;;;;25.41;62.29;100858.97;5033166;28;20071;-62
2022/06/23 07:03:54;;;;;;;1.30;0.60;;;;;;;25.62;60.65;100864.44;5027320;28;20034;-61
2022/06/23 07:06:47;;;;;;;1.10;0.70;;;;;;;25.21;61.65;100856.50;5023888;28;20057;-62
2022/06/23 07:09:39;;;;;;;1.90;1.00;;;;;;;25.63;61.10;100865.19;5031584;28;20099;-61
2022/06/23 07:12:14;;;;;;;0.57;0.50;;;;;;;24.92;64.35;100867.03;5008520;28;20025;-63
2022/06/23 07:15:01;;;;;;;1.38;0.60;;;;;;;25.14;62.25;100861.50;5024017;28;20094;-61
2022/06/23 07:17:43;;;;;;;0.47;0.47;;;;;;;25.50;59.39;100857.03;5024075;28;20083;-63
2022/06/23 07:20:11;;;;;;;1.02;0.60;;;;;;;25.79;58.71;100863.00;5024938;28;20099;-63
2022/06/23 07:22:46;;;;;;;0.68;0.60;;;;;;;25.99;60.80;100868.13;5029396;28;20022;-63
2022/06/23 07:25:21;;;;;;;0.88;0.70;;;;;;;25.41;60.51;100861.72;5027911;28;20046;-62
2022/06/23 07:27:53;;;;;;;1.23;0.45;;;;;;;25.90;60.28;100865.31;5031526;28;20064;-63
2022/06/23 07:30:37;;;;;;;1.02;0.40;;;;;;;26.16;61.76;100860.38;5021586;28;20112;-60
2022/06/23 07:33:10;;;;;;;2.67;0.60;;;;;;;26.26;60.06;100867.47;5024956;28;20075;-62
2022/06/23 07:35:57;;;;;;;0.57;0.50;;;;;;;26.01;57.83;100871.22;5026322;28;20033;-63
2022/06/23 07:38:32;;;;;;;1.00;0.65;;;;;;;26.29;58.03;100875.59;5023578;28;20033;-63
2022/06/23 07:41:34;;;;;;;0.63;0.47;;;;;;;26.05;57.28;100863.56;5027749;28;20091;-63
2022/06/23 07:44:04;;;;;;;5.18;0.60;;;;;;;26.26;59.25;100854.44;5023085;28;20033;-64
2022/06/23 07:46:34;;;;;;;0.47;0.45;;;;;;;26.52;56.67;100865.97;5031169;28;20041;-63
2022/06/23 07:48:59;;;;;;;1.00;0.50;;;;;;;26.90;57.85;100865.56;5032458;28;20033;-62
2022/06/23 07:51:25;;;;;;;1.15;0.80;;;;;;;27.08;56.77;100866.31;5030721;28;20028;-63
2022/06/23 07:53:52;;;;;;;0.45;0.43;;;;;;;27.18;55.42;100867.06;5031233;28;20241;-63
2022/06/23 07:56:39;;;;;;;0.60;0.60;;;;;;;27.41;56.15;100872.00;5031775;28;20025;-63
2022/06/23 07:59:10;;;;;;;1.23;0.90;;;;;;;27.07;55.06;100877.84;4965818;28;20050;-63
2022/06/23 08:01:47;;;;;;;0.88;0.55;;;;;;;27.11;54.40;100881.22;4955941;28;20051;-62
2022/06/23 08:04:31;;;;;;;1.08;0.55;;;;;;;26.69;56.36;100867.97;4960892;28;20121;-63
2022/06/23 08:07:02;;;;;;;1.05;0.68;;;;;;;26.92;55.93;100877.72;4970968;28;20043;-63
2022/06/23 08:09:48;;;;;;;0.90;0.75;;;;;;;27.42;55.66;100874.31;4956956;28;20062;-63
2022/06/23 08:18:32;;;;;;;4.13;0.85;;;;;;;27.37;54.66;100877.69;4975299;28;20030;-63
2022/06/23 08:21:03;;;;;;;0.80;0.45;;;;;;;27.16;54.75;100881.38;4957971;28;20039;-64
2022/06/23 08:23:37;;;;;;;0.70;0.60;;;;;;;27.63;54.16;100884.38;4968316;28;20652;-63
2022/06/23 08:26:06;;;;;;;0.52;0.50;;;;;;;27.20;52.68;100886.75;4969693;28;20038;-63
2022/06/23 08:28:32;;;;;;;0.60;0.55;;;;;;;27.23;53.18;100886.59;4972642;28;20030;-62
2022/06/23 08:30:58;;;;;;;0.88;0.60;;;;;;;27.51;51.90;100881.78;4969958;28;20638;-62
2022/06/23 08:33:24;;;;;;;0.90;0.70;;;;;;;27.67;51.94;100879.47;4972758;28;20097;-62
2022/06/23 08:35:53;;;;;;;0.50;0.50;;;;;;;28.13;51.63;100866.19;5000864;28;20556;-62
2022/06/23 08:38:32;;;;;;;1.88;1.27;;;;;;;28.49;50.02;100870.75;5031055;28;20021;-63
2022/06/23 08:40:58;;;;;;;0.63;0.63;;;;;;;28.01;51.75;100864.41;5022333;28;20037;-63
2022/06/23 08:43:42;;;;;;;0.60;0.60;;;;;;;28.36;52.05;100868.22;5020999;28;20029;-62
2022/06/23 08:46:17;;;;;;;0.45;0.45;;;;;;;28.77;52.97;100866.56;5031184;28;20401;-62
2022/06/23 08:48:57;;;;;;;0.50;0.45;;;;;;;29.03;50.85;100866.81;5031440;28;20149;-62
2022/06/23 08:51:38;;;;;;;2.25;0.80;;;;;;;29.29;49.76;100865.03;5026988;28;20043;-63
2022/06/23 08:54:19;;;;;;;0.30;0.30;;;;;;;29.45;49.93;100858.22;5022362;28;20025;-62
2022/06/23 08:57:11;;;;;;;4.97;1.20;;;;;;;29.62;49.29;100853.72;5028323;28;20045;-62
2022/06/23 08:59:56;;;;;;;1.15;0.40;;;;;;;29.35;49.18;100860.34;5035935;28;20169;-63
2022/06/23 09:02:39;;;;;;;1.63;0.60;;;;;;;29.41;48.32;100844.53;5027841;28;20038;-62
2022/06/23 09:05:25;;;;;;;0.85;0.77;;;;;;;29.51;48.69;100854.31;5023958;28;20034;-62
2022/06/23 09:07:58;;;;;;;1.48;0.65;;;;;;;29.50;46.67;100852.75;5016132;28;20482;-63
2022/06/23 09:10:48;;;;;;;1.02;0.57;;;;;;;29.65;47.36;100845.19;5028141;28;20101;-62
2022/06/23 09:13:33;;;;;;;0.85;0.65;;;;;;;29.91;47.86;100848.13;5030276;28;20575;-63
2022/06/23 09:16:09;;;;;;;1.25;1.15;;;;;;;30.18;46.20;100856.09;5029324;28;20525;-62
2022/06/23 09:18:43;;;;;;;0.70;0.70;;;;;;;30.48;44.63;100851.22;5030807;28;20033;-62
2022/06/23 09:21:40;;;;;;;1.27;0.75;;;;;;;30.64;43.60;100845.84;5030384;28;20030;-63
2022/06/23 09:24:36;;;;;;;1.02;0.50;;;;;;;30.68;45.04;100848.44;5028803;28;20037;-63
2022/06/23 09:27:21;;;;;;;2.97;0.98;;;;;;;31.01;45.66;100846.78;5030567;28;20041;-63
2022/06/23 09:29:58;;;;;;;0.57;0.50;;;;;;;31.06;43.67;100845.31;5028671;28;20400;-63
2022/06/23 09:33:01;;;;;;;0.82;0.50;;;;;;;31.15;43.09;100841.63;5029493;28;20116;-62
2022/06/23 09:35:45;;;;;;;1.10;0.75;;;;;;;31.26;43.46;100831.34;5013764;28;20039;-63
2022/06/23 09:38:42;;;;;;;0.68;0.50;;;;;;;31.39;44.40;100828.94;5026499;28;20398;-63
2022/06/23 09:41:08;;;;;;;1.13;0.50;;;;;;;30.91;43.69;100834.28;5030148;28;20064;-63
2022/06/23 09:44:03;;;;;;;0.98;0.77;;;;;;;29.86;45.44;100830.16;5029022;28;20061;-63
2022/06/23 09:46:29;;;;;;;0.75;0.50;;;;;;;30.55;44.33;100831.31;5030424;28;20505;-63
2022/06/23 09:49:14;;;;;;;0.52;0.50;;;;;;;30.98;42.79;100821.94;5030484;28;20068;-62
2022/06/23 09:51:45;;;;;;;1.10;0.70;;;;;;;31.13;43.58;100824.63;5028929;28;20493;-63
2022/06/23 09:54:34;;;;;;;0.50;0.47;;;;;;;31.37;42.67;100825.06;5029812;28;20302;-62
2022/06/23 09:57:25;;;;;;;1.40;0.88;;;;;;;31.69;41.71;100821.81;5022765;28;20033;-62
2022/06/23 10:00:17;;;;;;;;;;;;;;;31.65;41.04;100826.84;5037390;28;20037;-63
2022/06/23 10:02:54;;;;;;;0.70;0.60;;;;;;;31.94;40.57;100829.34;5014124;28;19917;-63
2022/06/23 10:05:19;;;;;;;0.70;0.50;;;;;;;31.81;40.37;100837.34;5029974;28;20496;-62
2022/06/23 10:07:50;;;;;;;0.80;0.60;;;;;;;32.29;38.73;100833.84;5029170;28;20048;-63
2022/06/23 10:10:24;;;;;;;0.50;0.40;;;;;;;32.34;39.01;100827.50;5029797;28;20033;-63
2022/06/23 10:13:21;;;;;;;0.60;0.50;;;;;;;32.08;39.82;100813.69;5029814;28;20022;-63
2022/06/23 10:16:03;;;;;;;0.73;0.63;;;;;;;32.20;39.99;100820.09;5030280;28;20025;-63
2022/06/23 10:18:40;;;;;;;0.77;0.57;;;;;;;32.59;38.50;100816.22;5029545;28;20034;-63
2022/06/23 10:21:18;;;;;;;1.02;0.73;;;;;;;32.22;37.19;100817.56;5032126;28;20088;-63
2022/06/23 10:24:29;;;;;;;0.63;0.50;;;;;;;31.42;38.75;100802.88;5028628;28;20097;-62
2022/06/23 10:27:11;;;;;;;1.10;0.40;;;;;;;31.53;38.80;100816.91;5015372;28;20125;-64
2022/06/23 10:30:00;;;;;;;0.77;0.50;;;;;;;32.13;38.04;100812.97;5033920;28;20499;-63
2022/06/23 10:32:32;;;;;;;0.47;0.47;;;;;;;32.27;36.40;100811.28;5032657;28;20030;-63
2022/06/23 10:35:13;;;;;;;0.70;0.50;;;;;;;32.19;38.10;100807.44;5046449;28;20033;-64
2022/06/23 10:38:12;;;;;;;0.50;0.50;;;;;;;32.69;39.28;100791.63;5034011;28;20108;-64
2022/06/23 10:41:11;;;;;;;1.27;0.63;;;;;;;32.63;37.46;100793.66;5033291;28;20038;-63
2022/06/23 10:43:48;;;;;;;1.00;0.63;;;;;;;32.83;37.41;100782.25;5030586;28;20079;-64
2022/06/23 10:46:23;;;;;;;0.68;0.65;;;;;;;33.16;37.46;100795.53;5017499;28;20190;-63
2022/06/23 10:49:09;;;;;;;0.82;0.70;;;;;;;32.50;35.97;100787.78;5018841;28;20088;-63
2022/06/23 10:51:50;;;;;;;0.52;0.50;;;;;;;33.30;34.90;100791.72;5016329;28;20037;-63
2022/06/23 10:54:40;;;;;;;2.70;0.60;;;;;;;33.21;35.00;100784.34;5020257;28;20032;-64
2022/06/23 10:57:25;;;;;;;0.70;0.60;;;;;;;32.64;37.01;100776.41;5018642;28;20030;-62
2022/06/23 11:00:07;;;;;;;0.43;0.43;;;;;;;33.15;36.14;100788.41;5018854;28;20090;-64
2022/06/23 11:02:32;;;;;;;0.40;0.40;;;;;;;33.56;35.56;100781.81;5032090;28;20036;-64
2022/06/23 11:05:35;;;;;;;0.47;0.40;;;;;;;33.70;34.66;100777.97;5021519;28;20025;-64
2022/06/23 11:08:29;;;;;;;0.55;0.38;;;;;;;34.01;34.53;100779.66;5027270;28;20044;-63
2022/06/23 11:11:22;;;;;;;0.90;0.70;;;;;;;32.95;34.20;100766.31;5010913;28;20072;-64
2022/06/23 11:14:24;;;;;;;0.50;0.47;;;;;;;33.59;36.70;100769.59;5014395;28;20032;-64
2022/06/23 11:17:09;;;;;;;0.80;0.68;;;;;;;33.54;33.64;100770.38;5023910;28;20134;-63
2022/06/23 11:20:02;;;;;;;0.60;0.60;;;;;;;33.48;34.31;100772.44;5028578;28;20034;-63
2022/06/23 11:22:40;;;;;;;1.30;0.75;;;;;;;32.53;34.19;100764.44;5020903;28;20041;-63
2022/06/23 11:25:38;;;;;;;0.65;0.60;;;;;;;32.84;35.61;100759.44;5027404;28;20041;-63
2022/06/23 11:28:40;;;;;;;0.60;0.50;;;;;;;32.93;35.04;100754.88;5020847;28;20604;-63
2022/06/23 11:31:24;;;;;;;0.45;0.32;;;;;;;33.57;34.58;100766.56;5001037;28;20086;-62
2022/06/23 11:34:17;;;;;;;0.60;0.60;;;;;;;33.54;34.80;100770.38;5021507;28;20061;-62
2022/06/23 11:37:16;;;;;;;0.77;0.50;;;;;;;33.36;32.82;100762.50;5015176;28;20030;-64
2022/06/23 11:40:02;;;;;;;0.55;0.52;;;;;;;33.86;32.05;100761.63;5019426;28;20037;-63
2022/06/23 11:42:54;;;;;;;1.15;0.77;;;;;;;33.89;31.80;100757.84;5030939;28;20486;-63
2022/06/23 11:45:54;;;;;;;0.80;0.60;;;;;;;34.21;31.71;100761.78;4998015;28;20046;-63
2022/06/23 11:48:34;;;;;;;1.80;0.82;;;;;;;33.95;32.95;100739.00;5011469;28;20103;-63
2022/06/23 11:51:19;;;;;;;;;;;;;;;34.28;32.41;100755.66;5015263;28;20031;-62
2022/06/23 11:54:21;;;;;;;0.90;0.52;;;;;;;34.72;33.56;100740.66;5025522;28;19920;-64
2022/06/23 11:56:56;;;;;;;1.00;0.50;;;;;;;34.89;33.60;100739.25;5024688;28;20025;-63
2022/06/23 11:59:31;;;;;;;0.43;0.43;;;;;;;34.99;32.38;100742.50;5027513;28;20099;-64
2022/06/23 12:01:57;;;;;;;1.20;0.90;;;;;;;35.10;31.64;100743.16;5015474;28;20453;-63
2022/06/23 12:04:51;;;;;;;0.45;0.40;;;;;;;35.29;30.84;100738.41;5020967;28;20036;-63
2022/06/23 12:07:35;;;;;;;0.57;0.50;;;;;;;34.89;31.94;100730.06;5019205;28;20135;-64
2022/06/23 12:10:17;;;;;;;0.68;0.50;;;;;;;35.20;32.51;100730.34;5026444;28;20049;-64
2022/06/23 12:12:46;;;;;;;0.47;0.47;;;;;;;34.75;31.57;100731.97;5008812;28;20032;-62
2022/06/23 12:15:16;;;;;;;1.02;0.80;;;;;;;35.03;31.78;100723.38;5028546;28;20033;-63
2022/06/23 12:17:46;;;;;;;0.90;0.70;;;;;;;35.01;33.29;100723.91;5019376;28;20033;-63
2022/06/23 12:20:35;;;;;;;3.50;0.70;;;;;;;34.69;32.77;100714.44;5026101;28;21012;-63
2022/06/23 12:23:06;;;;;;;0.75;0.60;;;;;;;34.59;32.30;100718.09;5028212;28;20107;-63
2022/06/23 12:25:50;;;;;;;0.52;0.52;;;;;;;34.33;32.75;100713.66;5023015;28;20132;-63
2022/06/23 12:28:28;;;;;;;0.60;0.60;;;;;;;34.60;33.58;100714.00;5020843;28;20041;-62
2022/06/23 12:31:18;;;;;;;1.17;0.68;;;;;;;34.01;32.59;100711.81;5027266;28;20037;-63
2022/06/23 12:34:08;;;;;;;1.63;0.57;;;;;;;33.29;34.24;100707.16;5068685;22;20044;-63
2022/06/23 12:36:51;;;;;;;1.20;0.80;;;;;;;33.79;33.78;100703.47;5067834;28;20028;-64